Date,TemperatureHighF,TemperatureAvgF,TemperatureLowF,DewpointHighF,DewpointAvgF,DewpointLowF,HumidityHigh,HumidityAvg,HumidityLow,PressureMaxIn,PressureMinIn,WindSpeedMaxMPH,WindSpeedAvgMPH,GustSpeedMaxMPH,PrecipitationSumIn
2014-1-1,36.4,24.7,11.3,26.9,18.5,7.1,88,78,66,30.35,29.93,21,8,27,0.03
2014-1-2,30.6,18.0,4.1,21.3,11.5,0.8,88,76,59,30.44,30.34,12,4,17,0.00
2014-1-3,45.7,31.0,17.8,25.1,19.0,12.4,81,63,42,30.34,29.73,28,13,38,0.00
2014-1-4,43.9,30.1,16.6,29.3,20.2,13.4,90,68,46,30.05,29.66,20,10,35,0.01
2014-1-5,16.6,10.9,0.9,14.1,3.2,-4.8,90,72,50,30.56,30.03,20,8,29,0.10
2014-1-6,14.4,5.5,-3.6,-1.2,-6.8,-11.9,74,57,39,30.62,30.36,15,6,20,0.00
2014-1-7,41.2,22.5,5.6,24.6,12.9,-1.5,81,67,49,30.35,30.07,14,7,22,0.00
2014-1-8,41.0,33.6,28.3,23.5,20.4,16.0,71,59,47,30.25,30.08,10,6,17,0.00
2014-1-9,34.6,31.2,27.2,33.7,27.4,21.7,100,86,71,30.24,29.92,14,5,18,0.00
2014-1-10,45.9,38.2,33.5,41.1,34.6,29.3,100,88,62,29.91,29.58,25,9,27,0.02
2014-1-11,53.0,41.4,29.7,32.8,29.0,24.1,92,64,38,29.96,29.74,18,8,27,0.00
2014-1-12,68.3,48.3,36.0,35.0,29.1,24.3,67,50,25,29.87,29.47,18,10,30,0.00
2014-1-13,53.1,42.7,33.3,32.3,25.2,18.6,73,52,29,29.99,29.74,16,8,21,0.00
2014-1-14,47.2,40.9,31.7,29.8,20.6,10.1,64,46,23,30.31,29.84,20,9,33,0.00
2014-1-15,48.9,36.1,24.5,26.2,22.6,19.7,83,60,36,30.31,29.85,13,6,20,0.00
2014-1-16,52.6,41.8,31.9,31.2,20.2,7.0,70,45,17,30.18,29.85,29,11,42,0.00
2014-1-17,43.8,33.1,23.2,18.2,14.8,12.2,70,48,29,30.25,30.00,20,8,37,0.00
2014-1-18,55.2,41.8,29.0,26.4,21.7,15.0,71,46,30,30.17,29.87,36,11,43,0.00
2014-1-19,66.5,46.9,27.4,25.5,23.2,20.1,76,44,20,30.16,29.87,10,2,13,0.00
2014-1-20,58.0,39.2,24.9,28.6,21.8,8.2,87,54,28,30.36,29.84,13,4,17,0.00
2014-1-21,29.6,19.9,8.1,8.4,0.2,-8.4,66,43,24,30.48,30.08,9,4,13,0.00
2014-1-22,44.1,29.4,17.6,22.3,13.4,0.7,82,53,34,30.43,30.08,8,3,14,0.00
2014-1-23,20.7,10.3,0.9,0.9,-6.9,-9.9,76,47,28,30.80,30.43,7,3,16,0.00
2014-1-24,48.1,26.8,2.3,20.6,6.8,-6.0,72,44,28,30.67,29.92,13,6,17,0.00
2014-1-25,59.6,45.4,34.7,33.5,27.0,18.4,66,50,36,30.08,29.85,12,4,17,0.00
2014-1-26,62.8,44.2,25.7,31.0,24.7,0.6,83,50,24,30.19,29.71,26,7,37,0.00
2014-1-27,25.6,16.4,12.2,1.7,-8.2,-12.0,37,32,27,30.47,30.20,31,8,31,0.00
2014-1-28,30.1,17.8,6.8,9.8,-0.5,-7.5,64,45,27,30.46,30.29,18,4,22,0.00
2014-1-29,49.0,28.9,11.0,13.4,7.8,3.0,88,48,18,30.28,29.84,23,10,33,0.00
2014-1-30,51.4,37.9,31.3,23.4,16.3,10.1,54,42,30,29.92,29.61,25,11,39,0.00
2014-1-31,32.9,25.3,22.0,21.2,18.1,14.1,93,75,54,29.97,29.84,16,9,29,0.01
2014-2-1,28.6,24.6,20.2,23.6,20.2,14.1,93,84,75,30.23,29.78,14,7,21,0.04
2014-2-2,30.0,20.3,13.1,14.2,10.1,6.1,86,65,44,30.36,30.24,13,5,18,0.00
2014-2-3,39.2,25.9,10.4,19.2,10.5,5.9,90,57,26,30.28,30.07,14,4,21,0.02
2014-2-4,31.9,25.2,11.5,25.8,19.9,7.8,93,82,39,30.25,29.90,15,7,26,0.35
2014-2-5,13.3,6.8,1.6,7.5,-0.5,-3.4,86,72,57,30.63,30.25,15,8,23,0.00
2014-2-6,18.1,8.5,2.0,-2.2,-4.3,-6.7,72,57,34,30.62,30.39,9,4,13,0.00
2014-2-7,19.8,13.2,7.4,13.3,4.5,-2.6,83,68,56,30.39,30.14,10,4,12,0.00
2014-2-8,28.8,24.7,17.6,25.7,21.2,13.0,93,87,78,30.14,29.99,14,3,16,0.01
2014-2-9,27.5,22.5,13.5,25.7,18.1,9.1,93,83,74,30.36,30.11,14,7,23,0.00
2014-2-10,21.3,14.0,9.0,9.9,7.0,4.7,89,74,54,30.43,30.33,14,6,18,0.22
2014-2-11,26.4,15.7,8.8,7.2,5.1,2.1,78,64,40,30.40,30.19,8,3,12,0.00
2014-2-12,38.2,23.2,11.9,29.1,17.8,5.7,90,80,68,30.19,29.97,10,3,20,0.00
2014-2-13,47.5,34.1,23.8,31.6,27.2,21.8,95,77,53,29.97,29.72,10,4,13,0.00
2014-2-14,52.1,39.6,28.8,36.1,30.8,24.7,88,72,53,30.09,29.69,15,4,22,0.00
2014-2-15,60.8,39.1,27.7,36.6,29.0,22.9,86,70,38,30.08,29.86,23,7,31,0.00
2014-2-16,57.6,43.1,27.0,33.5,29.7,24.9,93,63,36,30.10,29.74,13,5,21,0.00
2014-2-17,60.8,49.6,40.5,37.1,28.7,22.0,81,47,23,30.09,29.71,23,9,38,0.00
2014-2-18,70.4,52.0,38.0,32.7,27.8,24.9,63,42,21,30.01,29.75,17,8,26,0.00
2014-2-19,57.8,48.9,38.3,55.9,31.3,25.7,96,54,30,30.00,29.48,18,5,20,0.00
2014-2-20,58.9,46.6,34.7,57.6,33.9,14.7,100,66,24,29.97,29.31,33,14,46,0.03
2014-2-21,58.8,42.7,29.9,24.1,18.5,13.1,70,41,21,29.99,29.88,24,8,34,0.00
2014-2-22,52.2,42.2,28.3,30.1,24.8,19.4,82,53,37,29.97,29.84,13,4,17,0.00
2014-2-23,44.3,34.4,25.0,28.6,20.2,9.9,73,57,41,30.29,29.99,16,9,23,0.00
2014-2-24,49.9,33.2,20.0,29.0,19.6,13.0,77,59,39,30.28,30.03,16,6,17,0.00
2014-2-25,31.9,24.1,17.1,19.0,15.6,5.9,81,70,55,30.48,30.21,14,7,25,0.00
2014-2-26,36.1,22.3,6.7,14.0,9.1,2.8,85,60,31,30.45,30.04,14,6,20,0.01
2014-2-27,48.2,33.6,15.8,17.6,13.0,9.5,84,47,22,30.06,29.76,13,6,25,0.00
2014-2-28,47.4,40.1,36.0,37.5,29.4,15.1,87,66,41,29.99,29.63,12,4,20,0.01
2014-3-1,37.2,21.1,9.4,24.2,16.9,5.8,91,84,58,30.30,29.99,18,9,27,0.03
2014-3-2,9.2,5.5,3.2,5.6,0.5,-2.5,86,79,68,30.48,30.28,24,10,29,0.09
2014-3-3,18.7,8.9,-2.0,0.4,-4.7,-10.7,78,56,27,30.51,30.19,12,6,21,0.03
2014-3-4,35.8,21.5,7.6,23.7,11.1,-1.8,73,64,54,30.19,29.95,16,6,21,0.00
2014-3-5,38.7,31.2,25.7,28.0,25.0,22.0,90,78,62,30.26,29.97,14,4,17,0.02
2014-3-6,45.5,33.8,25.7,36.0,29.9,24.9,100,86,69,30.25,29.93,17,6,25,0.00
2014-3-7,60.1,44.3,34.7,40.8,35.2,27.9,88,72,47,30.04,29.76,18,9,25,0.00
2014-3-8,42.9,32.6,25.9,27.5,21.8,18.9,84,65,41,30.34,30.04,15,7,26,0.00
2014-3-9,61.3,41.6,20.0,32.2,24.8,16.1,87,56,30,30.32,30.02,18,6,21,0.00
2014-3-10,78.1,56.2,38.0,35.0,27.8,23.6,56,37,14,30.01,29.69,15,7,17,0.00
2014-3-11,70.7,52.7,36.4,49.2,37.7,29.8,85,59,36,30.07,29.45,29,12,41,0.00
2014-3-12,58.9,43.6,31.7,31.5,26.4,20.6,86,57,25,30.29,30.08,20,8,29,0.00
2014-3-13,69.6,52.8,34.2,25.2,20.8,18.0,55,32,15,30.17,29.83,21,9,29,0.00
2014-3-14,68.7,54.4,40.1,29.1,23.4,16.9,54,32,16,30.01,29.79,17,7,25,0.00
2014-3-15,71.9,50.7,32.0,55.9,39.1,23.8,85,65,51,30.00,29.73,21,5,30,0.23
2014-3-16,48.1,38.3,27.2,32.5,22.5,16.8,78,56,30,30.23,29.93,25,11,34,0.00
2014-3-17,57.5,40.3,24.7,32.2,24.4,16.5,73,55,36,30.09,29.48,20,8,30,0.00
2014-3-18,63.8,49.0,36.9,36.4,31.2,28.3,71,51,34,29.87,29.36,35,16,43,0.00
2014-3-19,57.9,44.1,32.0,30.4,27.0,24.9,76,54,30,30.21,29.88,23,8,37,0.00
2014-3-20,72.4,53.5,34.9,32.0,27.0,22.4,69,40,17,30.14,29.85,20,7,28,0.00
2014-3-21,67.0,55.5,48.0,35.4,29.8,22.8,54,38,24,30.13,29.68,20,8,28,0.00
2014-3-22,52.7,39.1,30.4,29.7,20.7,7.5,72,51,25,30.43,30.13,18,9,29,0.00
2014-3-23,46.7,33.6,22.5,19.8,17.3,12.7,78,53,32,30.50,30.24,16,6,21,0.00
2014-3-24,53.7,38.6,29.3,31.3,23.2,17.8,78,55,33,30.27,30.13,18,4,27,0.00
2014-3-25,49.7,38.2,27.5,25.0,19.2,13.3,81,49,26,30.43,30.15,12,4,18,0.00
2014-3-26,50.4,40.6,34.0,40.8,30.7,17.9,93,70,43,30.15,29.62,31,14,48,0.07
2014-3-27,70.6,57.3,41.9,53.7,43.4,30.9,85,63,29,29.86,29.41,37,16,40,0.00
2014-3-28,58.1,43.4,34.0,35.5,30.1,25.9,75,61,40,30.14,29.84,13,5,22,0.00
2014-3-29,66.7,46.6,29.3,37.6,31.1,26.3,92,60,28,30.31,30.12,13,4,22,0.00
2014-3-30,75.2,60.3,46.6,38.0,34.7,28.3,59,40,25,30.12,29.73,33,15,41,0.00
2014-3-31,74.3,63.2,43.6,49.3,35.3,23.6,66,39,16,30.04,29.62,25,15,36,0.14
2014-4-1,57.7,44.3,32.2,32.6,26.6,21.7,65,51,34,30.10,29.88,13,6,19,0.00
2014-4-2,73.3,55.5,46.1,52.0,43.8,31.2,97,67,41,29.90,29.58,14,6,21,0.05
2014-4-3,52.6,47.2,37.6,52.0,44.2,32.9,100,90,76,29.97,29.55,20,9,29,0.00
2014-4-4,58.7,43.4,31.0,33.2,28.2,22.6,90,60,29,30.18,29.98,16,7,22,0.00
2014-4-5,64.8,50.3,32.4,32.3,28.2,25.6,77,46,24,30.14,29.95,14,5,24,0.00
2014-4-6,59.3,51.9,45.3,43.6,38.9,26.7,91,63,39,30.02,29.82,12,3,15,0.02
2014-4-7,63.2,50.9,39.1,47.8,39.6,34.4,87,67,41,29.97,29.77,26,7,36,0.00
2014-4-8,67.5,52.2,38.0,37.1,29.8,18.8,79,47,19,30.12,29.97,20,8,31,0.00
2014-4-9,82.3,60.8,38.2,40.9,32.5,20.5,66,37,22,30.12,29.78,25,9,31,0.00
2014-4-10,75.6,67.0,54.9,43.9,38.1,31.0,52,35,23,29.97,29.78,21,10,35,0.00
2014-4-11,81.2,65.2,47.9,55.2,40.2,27.7,70,41,28,30.02,29.84,13,6,22,0.00
2014-4-12,87.0,70.7,58.1,61.7,57.4,53.5,91,66,38,29.87,29.52,33,14,44,0.00
2014-4-13,81.3,62.5,34.2,65.1,53.5,29.7,85,73,58,29.89,29.45,20,9,27,0.10
2014-4-14,50.9,38.4,30.6,30.3,21.9,11.6,95,57,22,30.21,29.88,25,9,31,0.04
2014-4-15,62.9,46.4,27.4,26.2,20.0,16.5,69,39,17,30.21,29.93,20,7,25,0.00
2014-4-16,72.8,57.3,44.3,38.0,28.1,19.7,56,34,19,30.07,29.82,32,13,43,0.00
2014-4-17,52.0,43.0,37.1,37.4,32.5,27.7,86,67,56,30.31,30.08,9,4,17,0.00
2014-4-18,72.1,52.6,31.5,46.8,38.9,30.2,100,64,37,30.28,30.07,17,4,24,0.00
2014-4-19,80.5,64.2,49.1,52.7,46.1,39.2,70,53,36,30.11,29.98,23,10,37,0.00
2014-4-20,72.2,63.8,56.9,59.7,53.2,48.3,81,69,59,30.07,29.94,17,7,25,0.00
2014-4-21,81.4,65.7,54.2,58.6,50.6,32.6,97,63,30,30.07,29.95,15,4,29,0.00
2014-4-22,77.6,61.3,40.7,37.0,33.0,29.8,69,38,20,30.15,29.92,12,3,15,0.00
2014-4-23,86.5,70.1,55.8,54.6,44.4,34.6,55,41,25,29.93,29.53,28,12,43,0.00
2014-4-24,70.0,61.8,49.9,58.3,46.8,35.5,90,61,29,29.91,29.57,24,9,37,0.03
2014-4-25,81.5,64.3,43.4,43.1,38.5,34.7,72,43,21,29.95,29.75,28,8,33,0.00
2014-4-26,86.9,72.7,58.1,62.2,51.1,39.4,67,47,38,29.79,29.46,26,12,34,0.00
2014-4-27,80.5,71.2,59.3,64.2,49.7,29.1,91,54,17,29.50,29.22,26,13,43,0.03
2014-4-28,62.7,55.0,46.1,41.3,37.1,32.9,71,52,36,29.62,29.33,39,18,51,0.00
2014-4-29,51.1,45.6,41.0,39.3,36.5,34.3,87,71,55,29.99,29.60,29,16,41,0.17
2014-4-30,58.9,48.5,38.7,36.0,30.5,23.7,79,53,27,30.09,29.99,24,10,39,0.00
2014-5-1,65.0,50.9,37.8,35.1,31.2,27.0,72,49,31,30.09,29.97,21,7,25,0.00
2014-5-2,74.0,55.8,40.7,32.9,29.1,24.2,68,42,17,30.03,29.86,15,3,23,0.00
2014-5-3,91.7,69.9,45.5,37.9,32.9,26.9,58,29,14,29.94,29.80,15,5,22,0.00
2014-5-4,101.5,79.7,57.8,42.2,35.9,29.8,50,24,9,29.86,29.62,21,9,30,0.00
2014-5-5,92.4,76.9,63.4,52.2,41.1,32.2,60,30,17,29.70,29.63,12,5,17,0.00
2014-5-6,99.9,78.5,59.4,60.6,53.7,31.9,76,48,10,29.69,29.44,21,8,29,0.00
2014-5-7,94.3,78.4,65.5,62.7,59.7,55.7,78,56,28,29.68,29.55,21,9,31,0.00
2014-5-8,83.2,73.0,60.7,61.2,52.3,40.2,79,52,24,29.85,29.64,17,9,28,0.00
2014-5-9,78.8,64.5,50.9,45.1,41.1,38.0,66,44,25,29.95,29.80,12,5,16,0.00
2014-5-10,92.5,71.9,58.0,63.4,54.3,44.5,93,59,23,29.84,29.63,14,5,20,0.61
2014-5-11,88.2,76.8,67.0,66.3,63.3,58.4,88,65,40,29.72,29.51,23,11,38,0.00
2014-5-12,74.0,56.8,47.2,66.0,50.1,38.9,92,79,68,30.15,29.62,21,10,30,0.20
2014-5-13,66.0,54.1,44.3,38.9,36.1,31.6,78,54,29,30.28,30.14,14,6,23,0.00
2014-5-14,68.9,56.5,41.4,40.5,35.1,28.0,83,50,23,30.29,30.14,14,3,15,0.00
2014-5-15,66.8,54.9,44.5,43.3,34.8,25.7,78,51,24,30.23,30.11,15,4,20,0.00
2014-5-16,66.9,50.8,38.7,45.8,37.8,32.1,87,63,38,30.13,29.97,15,3,21,0.04
2014-5-17,68.1,54.1,39.8,41.2,38.4,36.0,91,59,35,30.18,30.08,13,3,16,0.00
2014-5-18,77.6,63.3,48.6,58.1,50.5,37.4,90,64,49,30.14,29.87,13,5,20,0.03
2014-5-19,88.6,75.1,63.5,60.8,58.2,55.4,76,58,38,29.87,29.65,25,13,40,0.00
2014-5-20,95.9,80.7,67.3,60.4,58.4,54.7,71,50,26,29.82,29.71,18,10,29,0.00
2014-5-21,93.8,79.6,65.2,66.6,60.2,56.2,76,54,31,29.98,29.82,12,4,21,0.00
2014-5-22,87.8,76.5,66.8,67.0,62.5,59.2,89,63,45,30.10,29.97,20,3,25,1.11
2014-5-23,76.0,67.7,63.0,67.9,64.3,61.5,97,89,74,30.08,30.01,10,2,14,0.96
2014-5-24,82.2,70.9,64.1,68.8,64.9,62.1,100,83,58,30.06,29.90,10,2,15,0.18
2014-5-25,82.8,68.7,63.5,70.7,64.1,60.8,96,86,60,30.00,29.91,13,3,18,0.28
2014-5-26,81.4,72.7,64.1,67.4,61.9,56.8,96,71,48,30.01,29.90,10,4,16,0.00
2014-5-27,83.5,70.4,61.9,67.6,62.6,58.9,91,77,54,29.99,29.91,10,1,14,0.00
2014-5-28,89.4,74.4,59.6,65.9,62.1,57.5,96,69,40,30.01,29.90,9,2,16,0.00
2014-5-29,91.0,77.8,63.9,67.7,62.9,59.1,93,63,37,29.98,29.88,10,2,15,0.00
2014-5-30,84.6,74.8,65.2,67.7,64.3,61.8,91,71,52,30.02,29.93,10,3,18,0.00
2014-5-31,86.7,75.1,64.1,67.8,64.7,61.7,93,72,50,30.04,29.90,8,2,13,0.00
2014-6-1,87.0,76.2,66.2,69.9,65.8,60.9,92,72,50,29.95,29.69,15,6,27,0.52
2014-6-2,89.4,76.3,65.2,70.5,65.8,62.8,93,72,48,29.99,29.78,10,3,16,0.00
2014-6-3,89.6,80.7,70.7,72.0,68.6,66.4,90,68,49,29.99,29.68,16,6,25,0.00
2014-6-4,95.2,82.8,72.9,73.3,68.6,64.6,78,64,43,29.78,29.66,15,6,25,0.00
2014-6-5,87.1,76.1,63.7,69.3,66.5,61.3,93,73,52,29.89,29.75,18,4,21,0.78
2014-6-6,80.2,71.8,66.1,69.2,66.0,63.0,93,83,65,29.97,29.78,12,2,22,0.07
2014-6-7,80.5,70.4,62.3,68.3,62.3,59.8,97,77,55,30.00,29.71,15,5,36,2.35
2014-6-8,79.3,69.1,61.9,63.2,60.2,58.1,88,74,54,30.04,29.87,10,4,16,0.00
2014-6-9,76.0,66.2,62.3,63.8,59.6,54.4,93,81,50,29.89,29.62,12,4,18,0.35
2014-6-10,81.2,70.1,60.8,61.7,59.5,57.8,93,71,47,29.87,29.73,12,5,17,0.03
2014-6-11,88.6,73.8,57.6,65.5,61.1,55.6,95,67,44,29.88,29.70,14,3,21,0.00
2014-6-12,79.2,69.3,61.0,64.6,59.1,52.6,93,72,47,30.07,29.71,18,5,24,0.53
2014-6-13,81.9,68.6,52.7,57.4,53.6,48.5,92,62,36,30.11,29.89,8,3,15,0.00
2014-6-14,89.6,77.5,66.1,70.3,64.0,56.0,77,64,44,29.90,29.61,20,10,30,0.00
2014-6-15,82.9,72.6,61.0,70.1,65.4,58.5,97,79,63,29.91,29.60,24,4,42,1.15
2014-6-16,89.0,80.4,72.2,73.0,70.4,67.5,88,73,59,29.92,29.74,26,10,38,0.00
2014-6-17,92.2,82.6,74.3,73.8,69.7,65.4,76,66,52,29.82,29.74,26,12,32,0.00
2014-6-18,90.9,82.3,73.4,72.2,69.4,65.9,79,66,52,29.87,29.80,21,10,29,0.00
2014-6-19,91.5,81.4,72.9,70.7,66.5,61.3,78,62,42,30.01,29.84,13,6,20,0.00
2014-6-20,93.8,82.1,73.8,68.9,66.5,59.9,84,62,38,30.06,29.93,14,4,19,0.00
2014-6-21,93.8,82.4,70.9,67.7,64.3,60.9,78,57,35,30.00,29.82,12,5,17,0.00
2014-6-22,94.2,79.4,64.4,70.2,65.7,60.0,92,65,42,29.96,29.74,26,5,31,0.73
2014-6-23,87.3,74.1,64.8,67.3,64.5,62.3,96,74,46,30.01,29.84,10,2,13,0.06
2014-6-24,85.9,70.7,63.2,69.2,64.2,60.5,93,81,53,30.07,29.98,12,2,22,2.10
2014-6-25,87.0,73.5,59.8,68.7,64.2,58.6,96,75,51,30.04,29.92,12,2,16,0.01
2014-6-26,82.3,74.1,66.8,72.3,67.4,61.9,89,80,68,30.00,29.79,15,4,21,0.21
2014-6-27,83.7,76.6,71.6,72.7,69.2,66.7,85,78,69,29.83,29.69,17,8,28,0.02
2014-6-28,80.0,71.7,64.1,69.4,65.1,59.6,88,80,65,29.92,29.69,18,4,28,0.07
2014-6-29,87.7,77.4,68.6,76.8,71.3,65.6,96,82,68,29.98,29.81,20,4,22,0.00
2014-6-30,93.4,84.3,75.1,77.1,72.7,68.1,81,69,56,29.85,29.71,17,8,30,0.09
2014-7-1,87.6,75.4,63.2,68.8,63.6,58.7,95,70,42,30.06,29.85,13,3,21,1.80
2014-7-2,80.5,70.8,58.0,58.7,53.7,50.1,85,57,37,30.19,30.06,12,4,21,0.00
2014-7-3,84.0,69.8,53.6,59.7,54.4,49.2,89,60,40,30.24,30.13,7,1,13,0.00
2014-7-4,87.6,75.6,62.5,66.5,61.1,54.9,77,62,45,30.24,30.09,12,3,18,0.00
2014-7-5,92.4,81.6,70.7,70.9,67.8,65.2,83,65,44,30.13,29.93,16,8,24,0.00
2014-7-6,98.5,84.6,72.7,70.4,67.8,64.4,79,59,37,29.97,29.83,13,6,19,0.00
2014-7-7,101.2,86.1,69.5,71.5,64.6,61.0,78,52,30,29.89,29.74,14,5,24,0.00
2014-7-8,86.9,77.8,69.6,63.9,60.1,54.8,75,56,35,30.06,29.81,15,3,24,0.00
2014-7-9,91.0,78.4,65.7,63.2,60.4,57.7,83,57,36,30.09,29.95,8,2,13,0.00
2014-7-10,85.1,73.8,63.0,70.7,65.1,60.0,95,75,56,30.10,29.94,15,5,20,2.33
2014-7-11,94.4,80.3,67.5,73.7,66.0,63.3,89,65,39,30.06,29.97,16,6,22,0.00
2014-7-12,94.1,82.9,73.6,68.1,64.5,59.6,71,55,39,30.08,29.96,18,7,28,0.00
2014-7-13,90.0,80.5,72.0,71.6,65.5,56.7,77,61,50,30.03,29.98,12,4,18,0.00
2014-7-14,94.2,78.3,68.6,71.2,65.1,53.9,90,66,38,30.16,29.98,12,3,19,0.02
2014-7-15,81.6,69.0,55.2,54.5,51.3,48.0,83,56,32,30.20,30.03,9,2,17,0.00
2014-7-16,67.3,64.2,58.1,58.8,55.2,50.9,87,73,58,30.09,30.02,13,2,18,0.05
2014-7-17,68.2,62.9,57.8,60.8,58.7,54.1,93,86,74,30.08,30.02,8,1,12,0.16
2014-7-18,77.4,67.1,60.1,60.9,59.2,56.8,96,78,55,30.10,29.99,9,2,14,0.03
2014-7-19,82.5,69.6,58.0,66.1,61.0,55.5,95,76,56,30.04,29.94,12,4,15,0.00
2014-7-20,90.6,75.6,64.6,74.0,66.4,59.8,86,74,58,29.97,29.85,17,7,24,0.00
2014-7-21,96.3,83.2,71.6,77.6,71.5,68.5,90,70,42,30.01,29.92,15,7,23,0.00
2014-7-22,101.7,86.6,74.7,75.3,72.3,70.2,87,65,39,30.08,29.98,10,3,14,0.00
2014-7-23,93.4,81.0,73.3,73.8,68.4,63.3,87,67,41,30.17,30.05,10,2,19,0.00
2014-7-24,92.1,79.5,66.2,70.6,66.8,61.8,87,67,48,30.12,29.92,17,3,18,0.00
2014-7-25,103.5,87.1,72.7,69.9,65.9,58.0,81,54,25,29.95,29.77,17,8,26,0.00
2014-7-26,105.9,88.9,75.4,68.3,63.6,57.6,68,46,21,29.89,29.80,14,6,22,0.00
2014-7-27,91.9,80.9,72.0,74.0,64.3,49.3,82,60,25,30.15,29.89,16,3,24,0.03
2014-7-28,88.0,75.5,60.8,61.6,58.0,54.0,84,57,37,30.29,30.13,10,2,15,0.00
2014-7-29,90.8,77.3,63.5,63.6,59.5,54.1,77,56,38,30.18,30.02,8,2,14,0.00
2014-7-30,72.9,67.6,60.3,66.7,63.5,-50.9,100,88,66,30.12,30.05,9,1,12,0.22
2014-7-31,86.3,68.8,56.3,68.1,57.4,51.5,100,74,36,30.14,30.03,7,1,9,0.00
2014-8-1,93.1,77.0,62.5,65.1,59.6,51.9,87,59,27,30.08,29.99,9,3,19,0.00
2014-8-2,91.9,77.1,64.1,67.4,63.6,60.5,92,66,37,30.13,30.05,12,2,15,0.00
2014-8-3,93.0,79.5,65.6,65.6,60.9,56.7,84,57,31,30.15,30.02,12,3,16,0.00
2014-8-4,94.7,80.6,68.2,65.1,61.8,59.5,78,56,32,30.10,29.99,15,4,20,0.00
2014-8-5,96.7,80.9,69.1,65.3,62.6,60.2,79,56,33,30.08,29.97,14,5,22,0.00
2014-8-6,96.8,82.9,69.7,70.0,64.9,61.0,82,58,33,30.00,29.80,16,6,24,0.00
2014-8-7,90.0,78.7,66.8,72.9,68.8,61.6,93,73,53,29.96,29.86,17,4,28,0.78
2014-8-8,90.5,78.8,68.8,74.0,68.6,65.0,95,73,49,29.99,29.89,20,2,25,0.38
2014-8-9,92.2,78.9,70.4,74.7,69.9,67.1,92,76,52,30.05,29.92,9,2,15,0.09
2014-8-10,86.1,75.5,67.0,71.2,67.3,64.5,97,78,54,30.08,29.94,23,3,31,0.88
2014-8-11,87.2,75.7,67.1,68.4,61.8,50.9,91,66,30,30.15,30.07,14,4,20,0.00
2014-8-12,85.7,71.6,57.6,59.4,55.9,53.4,88,61,36,30.18,30.05,9,2,15,0.00
2014-8-13,88.7,73.8,59.6,62.9,57.9,51.8,77,59,40,30.15,30.02,8,2,14,0.00
2014-8-14,92.0,78.0,66.2,68.0,63.3,58.4,77,62,43,30.06,29.92,14,4,20,0.00
2014-8-15,94.9,79.9,70.2,70.8,65.0,61.0,78,63,35,29.95,29.82,15,5,23,0.04
2014-8-16,95.9,82.4,74.3,70.7,66.7,64.0,76,61,41,29.90,29.82,9,3,15,0.00
2014-8-17,96.3,83.2,74.2,71.6,68.4,65.3,79,63,41,29.99,29.86,9,1,16,0.00
2014-8-18,93.4,78.4,65.9,74.1,66.7,60.6,93,70,44,30.04,29.78,20,4,30,0.61
2014-8-19,97.1,83.9,72.7,68.5,64.2,58.5,72,53,36,29.88,29.77,16,5,23,0.00
2014-8-20,95.7,83.2,71.6,70.8,66.8,64.1,79,59,41,29.87,29.78,18,7,26,0.00
2014-8-21,97.8,85.8,74.9,70.6,67.6,65.1,74,56,38,29.91,29.83,18,8,26,0.00
2014-8-22,101.3,87.3,76.0,70.4,67.3,64.6,72,53,33,29.92,29.84,14,6,21,0.00
2014-8-23,100.4,85.8,71.3,65.1,58.9,48.6,67,44,18,29.91,29.80,22,7,30,0.00
2014-8-24,101.9,86.7,75.1,64.5,60.8,56.5,62,44,23,29.90,29.80,22,8,23,0.00
2014-8-25,102.7,87.1,72.9,67.3,64.8,62.1,75,50,30,29.98,29.87,9,4,18,0.11
2014-8-26,95.5,80.1,70.6,70.3,65.5,60.9,76,62,41,30.11,29.98,20,3,28,0.01
2014-8-27,92.9,81.9,70.0,67.6,65.6,63.7,84,59,41,30.11,29.96,9,2,16,0.00
2014-8-28,80.8,75.1,67.1,69.2,65.4,61.6,86,72,58,29.98,29.84,12,3,21,0.51
2014-8-29,86.5,73.6,67.0,69.8,64.8,62.0,88,75,53,29.91,29.82,13,3,20,0.19
2014-8-30,94.7,77.4,63.4,68.5,62.3,56.2,95,65,31,29.97,29.86,8,1,12,0.01
2014-8-31,96.8,82.3,69.8,70.8,64.9,60.1,82,59,33,29.89,29.64,25,8,35,0.00
2014-9-1,85.9,74.4,64.4,71.3,64.7,58.3,85,72,57,29.88,29.74,21,7,28,0.04
2014-9-2,88.2,77.6,69.7,69.0,67.0,65.2,87,71,49,30.00,29.87,9,4,16,0.00
2014-9-3,96.3,82.3,71.3,72.2,67.6,64.0,82,64,39,29.95,29.79,22,9,31,0.00
2014-9-4,96.8,85.1,74.5,67.3,63.0,59.2,69,50,30,29.96,29.83,22,10,33,0.00
2014-9-5,80.9,72.2,58.5,64.9,59.2,51.1,79,64,50,30.24,29.95,16,7,22,0.02
2014-9-6,78.3,65.0,57.6,56.5,52.2,46.0,91,67,37,30.26,30.16,14,5,19,0.11
2014-9-7,81.4,65.2,49.3,54.7,50.1,46.2,91,62,32,30.21,30.02,10,2,16,0.00
2014-9-8,89.5,74.4,58.9,66.9,62.1,51.6,95,68,46,30.06,29.84,16,6,24,0.00
2014-9-9,96.2,83.2,71.3,68.5,65.1,61.3,83,58,33,29.89,29.60,30,11,35,0.00
2014-9-10,82.6,69.4,61.6,66.9,60.5,55.7,85,74,56,30.00,29.59,18,7,29,0.00
2014-9-11,74.0,62.2,56.3,55.5,52.1,48.7,81,70,51,30.21,30.00,17,8,21,0.00
2014-9-12,58.1,53.0,49.7,49.3,45.4,38.6,85,76,65,30.42,30.19,17,8,22,0.00
2014-9-13,68.6,52.6,36.5,44.8,38.8,32.4,91,62,32,30.41,30.19,14,4,19,0.00
2014-9-14,82.2,64.5,48.2,60.2,52.5,43.8,89,67,47,30.22,30.01,17,6,28,0.00
2014-9-15,82.4,70.0,63.5,64.6,60.1,55.0,82,71,54,30.20,30.01,14,8,21,0.00
2014-9-16,79.8,66.8,57.7,63.4,55.9,48.9,83,69,55,30.21,29.98,10,5,18,0.00
2014-9-17,98.2,79.3,64.8,68.5,63.5,58.0,95,64,27,29.98,29.78,10,4,13,0.00
2014-9-18,87.8,74.8,67.7,66.7,61.1,55.3,87,65,34,30.00,29.84,17,6,25,0.00
2014-9-19,89.9,74.7,63.2,68.5,63.7,59.9,95,71,41,29.99,29.89,15,4,20,0.00
2014-9-20,92.7,77.8,67.3,69.2,65.1,59.9,90,69,35,30.03,29.92,13,5,18,0.03
2014-9-21,83.3,71.9,57.6,68.4,52.7,41.6,89,56,26,30.25,30.03,20,5,23,0.00
2014-9-22,80.3,65.1,48.6,50.2,46.7,43.2,88,55,27,30.31,30.16,13,2,19,0.00
2014-9-23,81.6,67.9,58.1,56.9,52.1,48.0,84,59,38,30.19,30.03,17,6,23,0.21
2014-9-24,79.2,66.0,57.4,61.4,57.1,54.1,93,75,51,30.17,30.08,15,5,24,0.27
2014-9-25,86.5,67.9,58.3,59.1,53.2,51.0,77,62,36,30.17,30.10,10,2,15,0.00
2014-9-26,84.6,69.6,55.9,59.7,54.6,51.6,87,61,36,30.15,30.05,12,3,16,0.00
2014-9-27,84.6,71.5,59.0,59.8,55.8,53.7,84,60,39,30.12,30.00,13,4,17,0.00
2014-9-28,85.8,72.4,60.0,61.1,55.6,50.6,87,58,33,30.12,30.03,12,2,16,0.00
2014-9-29,87.5,71.9,58.6,63.1,57.9,55.0,95,65,36,30.08,29.90,10,2,14,0.00
2014-9-30,86.2,73.2,61.9,62.7,59.2,55.1,81,63,41,29.93,29.68,21,6,28,0.00
2014-10-1,90.5,76.5,66.7,67.1,61.9,48.9,86,63,36,29.73,29.64,14,4,22,0.00
2014-10-2,71.2,63.8,53.2,62.3,54.7,46.9,88,73,58,29.95,29.66,18,6,28,0.00
2014-10-3,61.6,52.1,42.8,48.1,36.7,25.5,89,59,27,30.29,29.95,24,6,39,0.00
2014-10-4,72.0,53.9,38.7,38.5,31.5,23.9,69,46,22,30.18,29.85,8,2,15,0.00
2014-10-5,82.9,64.3,48.7,48.8,40.7,36.4,66,45,20,29.89,29.78,14,4,25,0.00
2014-10-6,82.8,66.9,52.9,50.4,45.0,40.7,74,50,23,29.90,29.72,14,5,23,0.00
2014-10-7,89.3,70.2,51.8,50.7,46.6,42.8,81,47,20,30.00,29.75,10,2,15,0.00
2014-10-8,83.8,70.7,58.5,66.3,57.2,49.0,78,63,46,30.03,29.88,20,5,22,0.00
2014-10-9,83.8,72.0,59.7,66.1,62.5,56.8,90,73,47,29.96,29.86,13,6,20,0.02
2014-10-10,59.7,51.7,47.5,57.4,48.4,42.0,96,89,79,30.17,29.92,16,8,30,0.58
2014-10-11,64.1,52.6,44.8,42.4,40.6,37.3,85,66,40,30.19,30.01,12,3,16,0.00
2014-10-12,65.9,53.3,40.3,53.4,46.7,37.9,100,80,59,30.01,29.62,15,5,32,0.05
2014-10-13,62.5,55.3,51.8,54.6,48.6,38.5,97,80,52,29.87,29.60,20,8,41,1.03
2014-10-14,69.2,56.2,46.2,42.1,38.7,34.2,77,54,29,30.04,29.86,20,8,33,0.00
2014-10-15,73.9,54.8,39.0,46.6,40.4,34.6,90,63,31,30.11,29.91,9,2,13,0.00
2014-10-16,79.3,60.9,49.1,53.5,47.5,42.4,85,64,36,29.90,29.75,10,3,18,0.00
2014-10-17,71.6,57.2,46.9,49.3,45.3,40.6,85,66,42,30.10,29.87,12,2,18,0.00
2014-10-18,66.6,52.4,41.9,45.3,42.7,38.5,89,72,45,30.25,30.11,10,2,15,0.00
2014-10-19,71.4,56.6,43.5,54.3,47.6,40.2,93,74,50,30.16,29.98,15,3,21,0.00
2014-10-20,81.4,63.0,51.1,59.5,50.9,43.6,97,69,29,30.08,29.99,12,2,16,0.00
2014-10-21,81.3,63.5,47.1,61.3,53.9,44.1,97,73,48,30.10,29.98,13,2,16,0.00
2014-10-22,78.5,66.5,55.9,59.2,56.1,52.6,100,72,44,30.12,30.02,18,5,28,0.01
2014-10-23,76.9,66.2,60.8,61.8,58.1,55.6,88,76,59,30.10,30.01,9,4,14,0.00
2014-10-24,82.4,66.8,56.5,64.4,59.3,55.1,100,79,52,30.06,29.97,12,4,18,0.00
2014-10-25,90.4,69.2,52.3,64.7,58.1,51.2,100,72,34,30.07,29.93,13,2,18,0.00
2014-10-26,88.4,72.9,60.1,58.0,54.1,48.4,81,56,33,29.93,29.63,25,9,33,0.00
2014-10-27,72.3,66.7,55.6,53.3,48.0,38.5,64,52,41,29.98,29.56,15,7,28,0.00
2014-10-28,67.8,49.5,40.3,39.7,36.6,30.3,87,66,26,30.18,29.98,10,1,18,0.00
2014-10-29,72.2,53.0,35.4,38.4,33.9,30.8,87,54,24,30.23,30.06,14,3,21,0.00
2014-10-30,72.9,58.3,48.2,39.6,35.9,33.2,63,45,28,30.27,30.02,20,6,28,0.00
2014-10-31,52.2,42.5,28.4,37.3,25.6,15.2,76,54,27,30.50,30.26,18,6,23,0.00
2014-11-1,54.6,41.7,28.0,23.1,18.6,13.9,70,42,20,30.41,30.15,21,6,32,0.00
2014-11-2,61.2,52.6,44.4,45.2,35.0,22.6,66,51,38,30.16,29.95,32,16,44,0.00
2014-11-3,66.9,56.8,48.7,56.8,47.8,39.3,89,72,62,30.12,29.91,24,11,35,0.06
2014-11-4,53.1,46.6,41.2,40.5,38.6,37.1,86,74,60,30.26,30.11,9,3,17,0.00
2014-11-5,66.6,48.6,33.1,40.5,34.8,29.4,97,64,28,30.26,30.10,13,2,19,0.00
2014-11-6,62.9,48.6,37.0,33.9,29.0,21.9,75,50,22,30.42,30.25,12,3,20,0.00
2014-11-7,69.8,52.5,35.8,45.8,35.6,26.8,72,54,37,30.26,29.81,26,7,37,0.00
2014-11-8,58.4,51.1,36.6,39.9,32.8,24.1,71,51,29,30.26,29.99,15,5,23,0.00
2014-11-9,68.3,51.4,38.1,44.7,37.5,26.8,77,60,40,30.06,29.60,17,6,24,0.00
2014-11-10,74.7,52.0,30.4,46.2,37.6,19.3,74,60,28,29.94,29.34,24,11,40,0.00
2014-11-11,35.8,27.7,20.5,19.3,10.1,3.3,66,49,26,30.42,29.94,25,10,31,0.00
2014-11-12,26.4,21.3,15.6,9.0,2.7,-0.8,64,45,32,30.58,30.42,15,8,26,0.00
2014-11-13,33.2,22.4,14.2,9.8,6.2,2.0,65,50,33,30.61,30.45,13,5,28,0.00
2014-11-14,36.8,27.0,15.6,12.8,9.3,7.3,73,49,32,30.46,30.22,12,3,19,0.00
2014-11-15,39.7,33.2,26.1,21.6,17.3,11.3,66,52,45,30.22,29.98,15,5,28,0.00
2014-11-16,31.3,20.6,14.2,21.6,11.1,7.2,84,67,46,30.26,30.12,13,6,24,0.15
2014-11-17,29.3,19.8,10.6,11.9,8.2,4.6,84,62,38,30.36,30.23,16,5,22,0.00
2014-11-18,39.4,22.9,4.8,26.8,14.7,0.5,85,72,51,30.34,30.00,14,4,20,0.01
2014-11-19,49.9,37.3,25.9,28.0,23.3,17.3,78,58,38,30.18,29.99,14,4,20,0.00
2014-11-20,50.9,35.9,20.5,25.8,20.9,14.7,81,56,37,30.17,30.06,13,4,17,0.00
2014-11-21,44.6,38.6,30.7,44.6,34.2,21.1,100,85,61,30.15,30.01,7,2,11,0.02
2014-11-22,60.8,50.3,41.7,56.4,48.6,41.7,100,94,83,30.03,29.62,22,7,29,0.00
2014-11-23,57.9,48.9,40.5,53.0,44.8,27.8,97,86,59,29.70,29.38,22,8,40,0.11
2014-11-24,51.7,39.6,28.0,27.9,21.1,14.6,69,50,24,30.16,29.70,31,9,35,0.00
2014-11-25,48.7,37.4,22.6,27.5,22.1,16.5,78,56,36,30.24,29.95,15,4,20,0.00
2014-11-26,47.9,40.8,29.8,30.2,24.7,19.8,66,53,39,30.45,29.93,28,9,38,0.00
2014-11-27,45.0,33.6,19.6,22.6,18.3,14.9,83,56,31,30.51,30.14,18,6,28,0.00
2014-11-28,61.5,47.4,36.1,40.7,31.8,22.6,70,55,38,30.14,29.73,18,9,25,0.00
2014-11-29,71.3,53.4,38.5,40.3,36.4,27.6,86,57,21,29.73,29.58,16,6,24,0.00
2014-11-30,52.2,32.9,21.0,40.4,18.0,2.6,78,55,38,30.42,29.59,18,9,32,0.00
2014-12-1,32.4,22.9,16.3,3.6,0.6,-2.6,51,39,23,30.62,30.42,16,7,24,0.00
2014-12-2,42.7,29.5,18.9,15.6,8.2,0.5,57,42,25,30.41,30.04,20,5,24,0.00
2014-12-3,45.5,35.4,23.2,21.4,18.0,14.8,74,51,30,30.32,30.11,20,4,29,0.00
2014-12-4,49.7,42.8,37.6,45.0,33.7,20.3,100,71,49,30.19,30.02,10,2,12,0.12
2014-12-5,53.6,45.8,37.8,49.1,44.7,37.8,100,96,85,30.29,29.98,9,2,14,0.48
2014-12-6,40.9,39.5,37.2,40.3,37.5,33.1,100,93,81,30.52,30.29,8,4,13,0.00
2014-12-7,46.2,40.8,37.4,46.2,40.8,37.4,100,100,96,30.46,30.20,15,6,20,0.00
2014-12-8,59.5,45.3,35.4,45.5,36.4,31.2,100,75,36,30.33,30.22,10,3,16,0.00
2014-12-9,47.2,38.5,29.8,33.5,28.8,25.3,83,69,52,30.41,30.26,14,5,19,0.00
2014-12-10,45.8,38.8,31.6,38.4,32.5,26.7,84,78,68,30.26,30.12,9,3,13,0.00
2014-12-11,48.9,43.9,38.3,41.3,37.5,33.6,84,78,71,30.22,30.14,8,3,12,0.00
2014-12-12,50.5,47.8,46.0,48.3,45.2,41.3,100,91,79,30.25,30.16,9,3,16,0.00
2014-12-13,54.7,50.8,47.5,54.7,50.8,47.5,100,100,100,30.19,29.93,17,7,26,0.00
2014-12-14,57.9,55.9,50.9,57.0,54.8,48.1,100,96,85,29.93,29.56,15,9,25,0.26
2014-12-15,54.5,40.8,32.7,51.0,34.3,24.3,90,78,65,30.11,29.54,35,15,40,0.00
2014-12-16,40.2,32.7,28.2,26.8,24.5,22.4,81,72,57,30.34,30.11,23,7,35,0.00
2014-12-17,32.9,29.8,27.9,30.6,25.6,22.5,100,85,76,30.31,30.12,13,6,19,0.11
2014-12-18,36.9,31.9,29.7,34.2,30.9,29.0,100,96,89,30.25,30.12,8,2,11,0.12
2014-12-19,36.5,32.4,30.2,35.2,31.2,29.2,96,95,92,30.26,30.16,8,2,10,0.06
2014-12-20,48.0,40.0,31.8,41.2,36.7,31.8,100,88,72,30.17,30.06,18,8,23,0.01
2014-12-21,44.1,41.9,39.7,44.1,40.4,36.6,100,94,87,30.06,29.65,18,9,25,0.04
2014-12-22,52.5,45.4,39.4,46.8,40.5,29.9,100,84,60,29.67,29.54,17,6,23,0.02
2014-12-23,40.8,37.1,34.2,33.5,30.6,28.1,92,78,65,29.96,29.67,17,8,26,0.03
2014-12-24,43.7,35.1,30.9,32.8,28.3,23.6,90,77,52,29.97,29.79,17,7,22,0.00
2014-12-25,56.1,43.9,32.9,30.8,27.9,23.8,72,55,36,29.80,29.60,35,14,42,0.00
2014-12-26,46.2,38.1,32.0,33.2,30.8,20.2,88,76,54,30.13,29.75,16,6,22,0.00
2014-12-27,36.2,28.3,19.8,28.2,19.8,13.5,86,71,50,30.34,30.13,18,6,24,0.00
2014-12-28,41.2,26.3,13.8,25.2,17.8,10.6,90,72,46,30.28,30.08,12,2,18,0.00
2014-12-29,41.3,30.3,16.5,26.8,21.4,13.3,89,71,51,30.45,30.13,20,6,28,0.00
2014-12-30,28.0,14.7,8.1,23.2,8.7,-0.8,84,77,65,30.73,30.45,16,8,26,0.07
2014-12-31,16.5,11.7,5.4,8.6,2.0,-2.3,73,65,45,30.73,30.36,13,4,20,0.00
2015-1-1,30.6,25.0,16.2,25.6,17.6,8.1,85,73,61,30.36,30.14,10,4,15,0.00
2015-1-2,37.9,31.8,29.1,33.2,27.8,25.4,91,85,72,30.19,29.99,9,4,16,0.00